Time;durP1;ratioP1;P1;durP2;ratioP2;P2;SDS_P1;SDS_P2;PMS_P1;PMS_P2;Temp;Humidity;BMP_temperature;BMP_pressure;BME280_temperature;BME280_humidity;BME280_pressure;Samples;Min_cycle;Max_cycle;Signal;HPM_P1;HPM_P2
2024/02/16 00:00:56;;;;;;;22.13;13.87;;;;;;;;;;766444;181;922730;-66
2024/02/16 00:03:22;;;;;;;16.80;11.70;;;;;;;;;;774763;181;913564;-66
2024/02/16 00:05:51;;;;;;;15.77;12.27;;;;;;;;;;771530;181;918731;-65
2024/02/16 00:08:14;;;;;;;19.43;12.53;;;;;;;;;;767918;178;918695;-65
2024/02/16 00:10:40;;;;;;;19.67;13.50;;;;;;;;;;770389;180;919055;-66
2024/02/16 00:13:06;;;;;;;22.73;12.57;;;;;;;;;;772501;180;920899;-65
2024/02/16 00:15:31;;;;;;;23.43;13.83;;;;;;;;;;766578;180;1010596;-63
2024/02/16 00:17:57;;;;;;;19.52;11.73;;;;;;;;;;766875;180;918945;-66
2024/02/16 00:20:24;;;;;;;17.63;13.10;;;;;;;;;;773482;181;911775;-65
2024/02/16 00:22:49;;;;;;;20.00;13.50;;;;;;;;;;766062;180;914530;-66
2024/02/16 00:25:15;;;;;;;21.10;13.38;;;;;;;;;;764734;182;936860;-65
2024/02/16 00:27:41;;;;;;;20.97;13.50;;;;;;;;;;772320;180;968779;-65
2024/02/16 00:30:08;;;;;;;17.83;11.67;;;;;;;;;;768471;180;922093;-64
2024/02/16 00:32:33;;;;;;;18.75;13.23;;;;;;;;;;767936;181;913600;-65
2024/02/16 00:34:59;;;;;;;17.87;12.40;;;;;;;;;;764493;180;920116;-67
2024/02/16 00:37:25;;;;;;;15.10;12.10;;;;;;;;;;782365;177;920872;-65
2024/02/16 00:39:52;;;;;;;16.57;11.10;;;;;;;;;;767645;181;920794;-65
2024/02/16 00:42:17;;;;;;;17.20;11.70;;;;;;;;;;767949;180;931881;-66
2024/02/16 00:44:42;;;;;;;17.37;11.77;;;;;;;;;;769303;182;937208;-65
2024/02/16 00:47:10;;;;;;;16.47;11.40;;;;;;;;;;762466;181;917014;-66
2024/02/16 00:49:34;;;;;;;21.60;12.63;;;;;;;;;;765640;181;992779;-65
2024/02/16 00:52:01;;;;;;;18.27;11.90;;;;;;;;;;771935;181;919615;-66
2024/02/16 00:54:26;;;;;;;18.73;12.37;;;;;;;;;;767460;181;919830;-65
2024/02/16 00:56:52;;;;;;;23.27;13.87;;;;;;;;;;765933;181;918195;-65
2024/02/16 00:59:19;;;;;;;16.23;11.93;;;;;;;;;;765840;181;917793;-66
2024/02/16 01:01:44;;;;;;;16.87;11.43;;;;;;;;;;769682;181;914578;-65
2024/02/16 01:04:10;;;;;;;14.10;10.40;;;;;;;;;;769100;181;913539;-64
2024/02/16 01:06:36;;;;;;;16.40;12.50;;;;;;;;;;769097;181;928344;-66
2024/02/16 01:09:02;;;;;;;16.47;11.07;;;;;;;;;;776201;178;935865;-65
2024/02/16 01:11:27;;;;;;;19.63;11.07;;;;;;;;;;763771;181;919267;-65
2024/02/16 01:13:53;;;;;;;19.63;14.20;;;;;;;;;;766299;181;903882;-65
2024/02/16 01:16:19;;;;;;;68.57;14.50;;;;;;;;;;772953;181;887957;-65
2024/02/16 01:18:45;;;;;;;17.67;11.70;;;;;;;;;;767363;181;918145;-65
2024/02/16 01:21:11;;;;;;;14.67;10.53;;;;;;;;;;768069;180;917483;-65
2024/02/16 01:23:36;;;;;;;15.90;10.27;;;;;;;;;;773501;180;919045;-65
2024/02/16 01:26:02;;;;;;;13.77;10.63;;;;;;;;;;768709;180;919386;-65
2024/02/16 01:28:28;;;;;;;17.10;10.75;;;;;;;;;;769702;180;917761;-65
2024/02/16 01:30:56;;;;;;;20.93;11.33;;;;;;;;;;767422;180;920766;-65
2024/02/16 01:33:21;;;;;;;100.63;14.33;;;;;;;;;;771083;182;883820;-65
2024/02/16 01:35:46;;;;;;;14.00;10.80;;;;;;;;;;766447;180;917961;-64
2024/02/16 01:38:12;;;;;;;15.00;9.17;;;;;;;;;;767795;180;918292;-65
2024/02/16 01:40:37;;;;;;;9.70;8.00;;;;;;;;;;769701;182;917709;-65
2024/02/16 01:43:03;;;;;;;16.10;9.47;;;;;;;;;;774046;179;1021538;-65
2024/02/16 01:45:29;;;;;;;15.60;8.05;;;;;;;;;;767151;180;1020801;-65
2024/02/16 01:47:55;;;;;;;102.93;14.32;;;;;;;;;;771403;180;1029139;-65
2024/02/16 01:50:21;;;;;;;12.13;8.07;;;;;;;;;;766287;181;919533;-64
2024/02/16 01:52:47;;;;;;;18.23;12.43;;;;;;;;;;771257;180;939065;-65
2024/02/16 01:55:13;;;;;;;14.70;9.00;;;;;;;;;;767494;180;916996;-65
2024/02/16 01:57:40;;;;;;;14.60;9.63;;;;;;;;;;771448;179;919062;-65
2024/02/16 02:00:07;;;;;;;12.60;9.00;;;;;;;;;;768493;178;920758;-65
2024/02/16 02:02:31;;;;;;;15.27;9.00;;;;;;;;;;765286;181;919327;-65
2024/02/16 02:04:58;;;;;;;16.27;10.07;;;;;;;;;;769776;181;918658;-65
2024/02/16 02:07:24;;;;;;;11.80;8.70;;;;;;;;;;767601;181;917930;-65
2024/02/16 02:09:50;;;;;;;16.20;9.90;;;;;;;;;;764420;182;918187;-66
2024/02/16 02:12:15;;;;;;;14.07;9.67;;;;;;;;;;771561;181;918639;-66
2024/02/16 02:14:41;;;;;;;16.33;8.73;;;;;;;;;;765723;181;918473;-65
2024/02/16 02:17:07;;;;;;;12.70;8.23;;;;;;;;;;764967;181;937634;-65
2024/02/16 02:19:33;;;;;;;12.47;9.13;;;;;;;;;;767613;181;920988;-66
2024/02/16 02:22:00;;;;;;;12.57;8.03;;;;;;;;;;771339;182;919102;-66
2024/02/16 02:24:24;;;;;;;11.00;7.77;;;;;;;;;;768489;181;920079;-66
2024/02/16 02:26:50;;;;;;;12.67;8.77;;;;;;;;;;765570;181;919521;-66
2024/02/16 02:29:16;;;;;;;11.20;7.00;;;;;;;;;;769463;181;918998;-66
2024/02/16 02:31:42;;;;;;;13.60;7.93;;;;;;;;;;766889;179;919756;-66
2024/02/16 02:34:08;;;;;;;9.87;7.60;;;;;;;;;;767553;180;919382;-66
2024/02/16 02:36:34;;;;;;;14.17;9.10;;;;;;;;;;771089;183;929871;-66
2024/02/16 02:38:59;;;;;;;17.90;8.95;;;;;;;;;;766539;180;928509;-66
2024/02/16 02:41:26;;;;;;;39.67;10.18;;;;;;;;;;766118;180;921276;-65
2024/02/16 02:43:52;;;;;;;60.97;11.20;;;;;;;;;;767674;181;925611;-66
2024/02/16 02:46:17;;;;;;;22.30;8.87;;;;;;;;;;769040;181;981089;-66
2024/02/16 02:48:44;;;;;;;20.70;9.40;;;;;;;;;;771884;180;1020281;-64
2024/02/16 02:51:10;;;;;;;15.57;8.25;;;;;;;;;;764907;180;917690;-66
2024/02/16 02:53:35;;;;;;;15.40;9.10;;;;;;;;;;773218;180;923124;-66
2024/02/16 02:56:01;;;;;;;13.90;9.40;;;;;;;;;;768674;181;914340;-66
2024/02/16 02:58:27;;;;;;;17.70;8.60;;;;;;;;;;766276;180;919669;-66
2024/02/16 03:00:54;;;;;;;12.13;8.00;;;;;;;;;;772472;180;884790;-66
2024/02/16 03:03:20;;;;;;;12.23;8.40;;;;;;;;;;765879;180;919533;-66
2024/02/16 03:05:45;;;;;;;12.57;8.67;;;;;;;;;;767390;180;918844;-66
2024/02/16 03:08:11;;;;;;;12.95;8.23;;;;;;;;;;767700;181;919275;-66
2024/02/16 03:10:37;;;;;;;11.77;8.10;;;;;;;;;;769802;181;921029;-65
2024/02/16 03:13:03;;;;;;;11.40;8.87;;;;;;;;;;768502;180;921833;-65
2024/02/16 03:15:29;;;;;;;13.13;8.63;;;;;;;;;;765338;181;920016;-65
2024/02/16 03:17:54;;;;;;;11.97;8.00;;;;;;;;;;774267;181;865182;-66
2024/02/16 03:20:21;;;;;;;11.53;8.27;;;;;;;;;;765679;181;919786;-65
2024/02/16 03:22:46;;;;;;;13.30;7.77;;;;;;;;;;768490;178;940254;-66
2024/02/16 03:25:12;;;;;;;10.33;8.23;;;;;;;;;;777219;178;919065;-66
2024/02/16 03:27:38;;;;;;;14.30;8.50;;;;;;;;;;765469;181;919406;-65
2024/02/16 03:30:04;;;;;;;12.40;7.13;;;;;;;;;;770925;178;921619;-65
2024/02/16 03:32:30;;;;;;;15.40;8.53;;;;;;;;;;773059;178;861820;-66
2024/02/16 03:34:56;;;;;;;14.27;8.83;;;;;;;;;;766083;181;919125;-66
2024/02/16 03:37:21;;;;;;;12.30;7.87;;;;;;;;;;765955;181;918175;-66
2024/02/16 03:39:47;;;;;;;14.98;8.65;;;;;;;;;;767239;181;919275;-66
2024/02/16 03:42:13;;;;;;;12.00;6.33;;;;;;;;;;774008;181;918660;-65
2024/02/16 03:44:39;;;;;;;11.57;7.90;;;;;;;;;;771974;177;1017327;-66
2024/02/16 03:47:05;;;;;;;14.87;7.80;;;;;;;;;;771113;177;918377;-65
2024/02/16 03:49:31;;;;;;;15.30;8.87;;;;;;;;;;778931;178;918665;-65
2024/02/16 03:51:57;;;;;;;15.13;7.50;;;;;;;;;;767017;182;918748;-65
2024/02/16 03:54:23;;;;;;;11.10;8.17;;;;;;;;;;767428;181;919154;-64
2024/02/16 03:56:48;;;;;;;13.43;8.13;;;;;;;;;;775011;180;917536;-63
2024/02/16 03:59:14;;;;;;;14.13;8.33;;;;;;;;;;767637;180;1021821;-66
2024/02/16 04:01:41;;;;;;;13.97;9.70;;;;;;;;;;764895;180;932590;-66
2024/02/16 04:04:06;;;;;;;15.47;10.00;;;;;;;;;;767675;180;941355;-66
2024/02/16 04:06:32;;;;;;;17.30;8.80;;;;;;;;;;770992;183;870596;-65
2024/02/16 04:08:58;;;;;;;15.97;7.83;;;;;;;;;;767735;180;1012369;-65
2024/02/16 04:11:23;;;;;;;13.00;8.87;;;;;;;;;;767082;180;919494;-65
2024/02/16 04:13:49;;;;;;;14.90;8.47;;;;;;;;;;772170;181;916884;-65
2024/02/16 04:16:16;;;;;;;11.60;7.60;;;;;;;;;;766789;181;919828;-66
2024/02/16 04:18:41;;;;;;;15.87;9.03;;;;;;;;;;764559;180;917850;-66
2024/02/16 04:21:07;;;;;;;15.17;8.47;;;;;;;;;;772002;181;917863;-66
2024/02/16 04:23:33;;;;;;;13.83;9.23;;;;;;;;;;770662;179;919146;-65
2024/02/16 04:25:59;;;;;;;17.20;11.33;;;;;;;;;;770262;181;919392;-66
2024/02/16 04:28:24;;;;;;;17.33;11.10;;;;;;;;;;769561;181;918868;-65
2024/02/16 04:30:50;;;;;;;16.73;10.03;;;;;;;;;;778057;178;918832;-65
2024/02/16 04:33:16;;;;;;;17.70;10.93;;;;;;;;;;767442;181;920670;-66
2024/02/16 04:35:42;;;;;;;17.10;9.37;;;;;;;;;;768339;181;918267;-65
2024/02/16 04:38:08;;;;;;;14.73;10.37;;;;;;;;;;771823;181;918517;-66
2024/02/16 04:40:34;;;;;;;14.07;9.90;;;;;;;;;;765990;181;1020840;-65
2024/02/16 04:42:59;;;;;;;19.63;11.13;;;;;;;;;;769229;181;634261;-66
2024/02/16 04:45:27;;;;;;;18.30;10.70;;;;;;;;;;775941;181;630265;-65
2024/02/16 04:47:51;;;;;;;16.00;10.27;;;;;;;;;;767032;181;849416;-68
2024/02/16 04:50:17;;;;;;;19.00;11.60;;;;;;;;;;765164;181;1020589;-65
2024/02/16 04:52:44;;;;;;;22.45;12.00;;;;;;;;;;766817;181;917014;-66
2024/02/16 04:55:09;;;;;;;20.30;12.30;;;;;;;;;;784141;176;917339;-65
2024/02/16 04:57:35;;;;;;;20.90;12.30;;;;;;;;;;773597;180;638873;-65
2024/02/16 05:00:01;;;;;;;18.93;10.87;;;;;;;;;;769816;180;915042;-67
2024/02/16 05:02:27;;;;;;;19.37;11.10;;;;;;;;;;775683;180;635775;-67
2024/02/16 05:04:53;;;;;;;15.73;10.40;;;;;;;;;;770731;180;634564;-65
2024/02/16 05:07:19;;;;;;;19.70;11.57;;;;;;;;;;769683;180;649543;-66
2024/02/16 05:09:45;;;;;;;21.00;12.33;;;;;;;;;;775103;180;627942;-66
2024/02/16 05:12:10;;;;;;;16.40;12.10;;;;;;;;;;771096;181;649202;-65
2024/02/16 05:14:36;;;;;;;24.47;12.00;;;;;;;;;;770407;180;661150;-65
2024/02/16 05:17:02;;;;;;;19.85;12.43;;;;;;;;;;773694;181;1027561;-64
2024/02/16 05:19:28;;;;;;;22.27;13.97;;;;;;;;;;770479;180;1015573;-65
2024/02/16 05:21:55;;;;;;;19.27;11.87;;;;;;;;;;772296;180;637796;-65
2024/02/16 05:24:20;;;;;;;24.57;12.70;;;;;;;;;;771917;181;649349;-65
2024/02/16 05:26:45;;;;;;;16.53;11.53;;;;;;;;;;774608;181;628883;-65
2024/02/16 05:29:11;;;;;;;17.50;11.00;;;;;;;;;;767809;180;917133;-65
2024/02/16 05:31:37;;;;;;;17.50;13.20;;;;;;;;;;766740;181;924531;-64
2024/02/16 05:34:03;;;;;;;17.70;10.50;;;;;;;;;;773020;181;920367;-65
2024/02/16 05:36:35;;;;;;;22.90;11.90;;;;;;;;;;769614;179;914255;-64
2024/02/16 05:38:56;;;;;;;17.00;12.30;;;;;;;;;;766010;181;920762;-65
2024/02/16 05:41:21;;;;;;;17.97;11.97;;;;;;;;;;772529;181;1022123;-65
2024/02/16 05:43:48;;;;;;;20.60;12.43;;;;;;;;;;766824;181;1016048;-65
2024/02/16 05:46:12;;;;;;;22.03;11.63;;;;;;;;;;761919;179;916789;-65
2024/02/16 05:48:39;;;;;;;20.20;11.30;;;;;;;;;;773023;181;909952;-65
2024/02/16 05:51:05;;;;;;;20.57;12.87;;;;;;;;;;770854;181;912529;-64
2024/02/16 05:53:31;;;;;;;24.23;14.47;;;;;;;;;;763520;181;917844;-64
2024/02/16 05:55:56;;;;;;;19.80;13.20;;;;;;;;;;766957;181;919338;-65
2024/02/16 05:58:23;;;;;;;17.23;11.13;;;;;;;;;;773149;181;917599;-65
2024/02/16 06:00:49;;;;;;;19.23;11.80;;;;;;;;;;770590;181;712097;-65
2024/02/16 06:03:14;;;;;;;24.33;12.73;;;;;;;;;;763404;181;1021088;-64
2024/02/16 06:05:40;;;;;;;21.40;14.33;;;;;;;;;;772225;181;920434;-64
2024/02/16 06:08:07;;;;;;;20.60;12.17;;;;;;;;;;769458;180;918886;-65
2024/02/16 06:10:32;;;;;;;27.80;13.30;;;;;;;;;;767528;180;961038;-65
2024/02/16 06:12:58;;;;;;;18.23;11.60;;;;;;;;;;767964;180;918699;-65
2024/02/16 06:15:24;;;;;;;27.33;13.13;;;;;;;;;;778491;176;1054616;-64
2024/02/16 06:17:50;;;;;;;18.47;11.80;;;;;;;;;;769029;179;1019423;-64
2024/02/16 06:20:16;;;;;;;24.83;14.83;;;;;;;;;;767461;180;1007914;-66
2024/02/16 06:22:41;;;;;;;21.67;12.10;;;;;;;;;;771652;180;916967;-65
2024/02/16 06:25:08;;;;;;;21.55;13.65;;;;;;;;;;765110;182;1021003;-64
2024/02/16 06:27:34;;;;;;;17.90;11.10;;;;;;;;;;765380;180;875110;-65
2024/02/16 06:29:59;;;;;;;19.67;11.27;;;;;;;;;;771396;180;994075;-64
2024/02/16 06:32:26;;;;;;;15.73;10.90;;;;;;;;;;767580;181;910253;-65
2024/02/16 06:34:51;;;;;;;19.73;11.33;;;;;;;;;;764845;180;919316;-65
2024/02/16 06:37:17;;;;;;;18.13;11.00;;;;;;;;;;768433;180;927112;-65
2024/02/16 06:39:43;;;;;;;18.17;12.03;;;;;;;;;;781499;177;915754;-65
2024/02/16 06:42:12;;;;;;;16.90;10.17;;;;;;;;;;766211;180;934056;-64
2024/02/16 06:44:35;;;;;;;17.57;11.83;;;;;;;;;;767737;181;919146;-65
2024/02/16 06:47:00;;;;;;;23.13;13.00;;;;;;;;;;771603;181;938286;-64
2024/02/16 06:49:26;;;;;;;20.40;11.83;;;;;;;;;;768468;181;919105;-65
2024/02/16 06:51:52;;;;;;;18.33;11.80;;;;;;;;;;765290;181;920556;-65
2024/02/16 06:54:18;;;;;;;20.03;13.07;;;;;;;;;;772352;181;888728;-65
2024/02/16 06:56:44;;;;;;;16.10;11.53;;;;;;;;;;764728;181;920777;-65
2024/02/16 06:59:10;;;;;;;18.42;11.65;;;;;;;;;;765453;181;921081;-65
2024/02/16 07:01:36;;;;;;;19.05;11.63;;;;;;;;;;766365;181;898685;-66
2024/02/16 07:04:02;;;;;;;20.67;12.13;;;;;;;;;;768089;181;919098;-65
2024/02/16 07:06:28;;;;;;;18.07;10.80;;;;;;;;;;766325;181;862763;-65
2024/02/16 07:08:54;;;;;;;17.22;12.66;;;;;;;;;;765932;181;1020060;-66
2024/02/16 07:11:20;;;;;;;18.73;10.87;;;;;;;;;;771211;181;1020953;-65
2024/02/16 07:13:46;;;;;;;19.90;12.03;;;;;;;;;;764985;181;918907;-65
2024/02/16 07:16:11;;;;;;;19.73;12.30;;;;;;;;;;765333;181;919525;-65
2024/02/16 07:18:37;;;;;;;15.77;12.00;;;;;;;;;;767437;182;919131;-66
2024/02/16 07:21:03;;;;;;;18.93;12.20;;;;;;;;;;771058;180;632915;-66
2024/02/16 07:23:29;;;;;;;15.83;11.83;;;;;;;;;;770079;180;917935;-66
2024/02/16 07:25:56;;;;;;;20.00;12.93;;;;;;;;;;769855;180;916902;-66
2024/02/16 07:28:23;;;;;;;23.40;14.63;;;;;;;;;;773680;180;923827;-66
2024/02/16 07:30:48;;;;;;;23.23;14.00;;;;;;;;;;768055;180;1021695;-65
2024/02/16 07:33:14;;;;;;;20.47;13.80;;;;;;;;;;767361;180;924424;-66
2024/02/16 07:35:40;;;;;;;26.63;13.30;;;;;;;;;;770705;180;912483;-65
2024/02/16 07:38:06;;;;;;;19.50;14.00;;;;;;;;;;767168;180;917668;-65
2024/02/16 07:40:32;;;;;;;24.03;16.60;;;;;;;;;;767073;180;921857;-65
2024/02/16 07:42:57;;;;;;;24.77;17.13;;;;;;;;;;771327;180;919580;-65
2024/02/16 07:45:23;;;;;;;22.50;14.30;;;;;;;;;;765399;180;918246;-65
2024/02/16 07:47:49;;;;;;;22.17;13.87;;;;;;;;;;766606;180;997541;-67
2024/02/16 07:50:18;;;;;;;26.77;12.47;;;;;;;;;;770884;180;919868;-66
2024/02/16 07:52:44;;;;;;;12.00;8.27;;;;;;;;;;771570;180;915987;-66
2024/02/16 07:55:10;;;;;;;18.60;8.40;;;;;;;;;;768653;181;914149;-65
2024/02/16 07:57:36;;;;;;;13.57;7.90;;;;;;;;;;770050;181;640222;-66
2024/02/16 08:00:03;;;;;;;9.80;6.87;;;;;;;;;;771348;181;910478;-66
2024/02/16 08:02:27;;;;;;;10.20;6.87;;;;;;;;;;769058;178;916001;-66
2024/02/16 08:04:53;;;;;;;10.15;6.62;;;;;;;;;;770061;180;915240;-66
2024/02/16 08:07:19;;;;;;;8.40;6.77;;;;;;;;;;771805;181;918745;-66
2024/02/16 08:09:46;;;;;;;9.70;6.73;;;;;;;;;;765962;181;943433;-66
2024/02/16 08:12:12;;;;;;;10.17;6.77;;;;;;;;;;765313;181;928487;-66
2024/02/16 08:14:37;;;;;;;9.17;6.20;;;;;;;;;;770806;181;632607;-67
2024/02/16 08:17:03;;;;;;;10.77;6.53;;;;;;;;;;772111;179;639513;-67
2024/02/16 08:19:29;;;;;;;12.40;6.63;;;;;;;;;;775306;179;631667;-66
2024/02/16 08:21:55;;;;;;;9.67;7.13;;;;;;;;;;768161;181;938074;-66
2024/02/16 08:24:21;;;;;;;10.53;5.70;;;;;;;;;;773503;181;928570;-66
2024/02/16 08:26:47;;;;;;;11.87;6.37;;;;;;;;;;765642;178;917554;-67
2024/02/16 08:29:13;;;;;;;8.70;5.70;;;;;;;;;;771346;180;644484;-66
2024/02/16 08:31:39;;;;;;;9.37;5.87;;;;;;;;;;774758;180;701081;-67
2024/02/16 08:34:07;;;;;;;9.67;5.97;;;;;;;;;;772760;180;655486;-68
2024/02/16 08:36:31;;;;;;;9.53;5.50;;;;;;;;;;769782;180;921686;-67
2024/02/16 08:38:56;;;;;;;10.13;5.80;;;;;;;;;;776671;180;713126;-66
2024/02/16 08:41:24;;;;;;;5.93;4.50;;;;;;;;;;773257;180;1022753;-66
2024/02/16 08:43:48;;;;;;;7.40;4.97;;;;;;;;;;767254;180;920831;-66
2024/02/16 08:46:14;;;;;;;10.57;5.77;;;;;;;;;;766027;180;945926;-67
2024/02/16 08:48:40;;;;;;;9.33;5.60;;;;;;;;;;770572;180;921696;-67
2024/02/16 08:51:06;;;;;;;11.87;5.63;;;;;;;;;;767433;181;948612;-67
2024/02/16 08:53:31;;;;;;;8.17;5.67;;;;;;;;;;768316;180;932186;-67
2024/02/16 08:55:57;;;;;;;8.37;6.00;;;;;;;;;;770045;181;918700;-67
2024/02/16 08:58:23;;;;;;;8.20;5.10;;;;;;;;;;766356;180;943001;-67
2024/02/16 09:00:49;;;;;;;7.63;5.30;;;;;;;;;;764302;180;919174;-67
2024/02/16 09:03:16;;;;;;;8.50;4.90;;;;;;;;;;771496;180;918321;-67
2024/02/16 09:05:41;;;;;;;9.80;5.23;;;;;;;;;;767439;180;917822;-67
2024/02/16 09:08:07;;;;;;;7.43;4.77;;;;;;;;;;766905;181;918994;-67
2024/02/16 09:10:33;;;;;;;8.43;5.07;;;;;;;;;;767169;181;918742;-67
2024/02/16 09:12:58;;;;;;;6.50;4.10;;;;;;;;;;770276;181;919970;-67
2024/02/16 09:15:24;;;;;;;6.73;4.57;;;;;;;;;;765653;181;935080;-67
2024/02/16 09:17:50;;;;;;;8.38;4.07;;;;;;;;;;768277;181;924960;-68
2024/02/16 09:20:21;;;;;;;5.97;3.93;;;;;;;;;;772770;181;915425;-67
2024/02/16 09:25:23;;;;;;;7.53;4.20;;;;;;;;;;784589;170;914431;-62
2024/02/16 09:27:48;;;;;;;7.77;4.10;;;;;;;;;;765786;180;847465;-63
2024/02/16 09:30:14;;;;;;;7.40;4.73;;;;;;;;;;779091;180;920889;-65
2024/02/16 09:32:41;;;;;;;8.57;4.33;;;;;;;;;;771150;180;843267;-63
2024/02/16 09:35:06;;;;;;;6.20;4.10;;;;;;;;;;770950;180;919277;-67
2024/02/16 09:37:32;;;;;;;6.80;3.93;;;;;;;;;;769045;180;919135;-63
2024/02/16 09:39:58;;;;;;;7.53;4.53;;;;;;;;;;767102;183;853430;-66
2024/02/16 09:42:26;;;;;;;5.70;4.00;;;;;;;;;;769633;180;918852;-63
2024/02/16 09:44:50;;;;;;;5.63;4.27;;;;;;;;;;768483;180;938864;-63
2024/02/16 09:47:19;;;;;;;6.70;4.00;;;;;;;;;;775007;180;910671;-63
2024/02/16 09:49:41;;;;;;;7.27;5.30;;;;;;;;;;771618;180;910719;-67
2024/02/16 09:52:07;;;;;;;5.50;3.97;;;;;;;;;;770379;180;920813;-65
2024/02/16 09:54:34;;;;;;;7.37;4.20;;;;;;;;;;776645;181;844187;-67
2024/02/16 09:57:00;;;;;;;7.40;5.00;;;;;;;;;;772938;180;875689;-62
2024/02/16 09:59:26;;;;;;;6.03;4.17;;;;;;;;;;769050;181;813310;-61
2024/02/16 10:01:58;;;;;;;10.03;4.90;;;;;;;;;;774061;181;845334;-63
2024/02/16 10:04:24;;;;;;;5.37;4.20;;;;;;;;;;774965;180;666680;-66
2024/02/16 10:06:50;;;;;;;6.97;4.10;;;;;;;;;;769242;180;920180;-66
2024/02/16 10:09:21;;;;;;;5.57;3.70;;;;;;;;;;765390;180;869283;-63
2024/02/16 10:11:47;;;;;;;7.47;4.10;;;;;;;;;;765033;180;918838;-66
2024/02/16 10:14:13;;;;;;;7.17;4.07;;;;;;;;;;768684;180;816987;-63
2024/02/16 10:16:39;;;;;;;7.40;4.53;;;;;;;;;;768575;180;920764;-63
2024/02/16 10:19:06;;;;;;;7.60;3.50;;;;;;;;;;770070;180;816534;-66
2024/02/16 10:21:31;;;;;;;7.07;4.57;;;;;;;;;;774100;180;913644;-67
2024/02/16 10:24:00;;;;;;;5.00;3.13;;;;;;;;;;770599;180;814887;-65
2024/02/16 10:26:26;;;;;;;6.53;3.80;;;;;;;;;;771599;180;918635;-62
2024/02/16 10:28:52;;;;;;;5.70;3.97;;;;;;;;;;772129;180;919656;-63
2024/02/16 10:31:17;;;;;;;6.90;4.23;;;;;;;;;;769965;181;887219;-62
2024/02/16 10:33:43;;;;;;;6.40;3.60;;;;;;;;;;767198;180;918819;-62
2024/02/16 10:36:09;;;;;;;6.37;3.40;;;;;;;;;;770345;179;918981;-65
2024/02/16 10:38:35;;;;;;;4.60;2.87;;;;;;;;;;776055;180;817168;-63
2024/02/16 10:41:01;;;;;;;5.53;2.87;;;;;;;;;;770474;180;919063;-61
2024/02/16 10:43:26;;;;;;;5.03;3.53;;;;;;;;;;771940;180;926960;-62
2024/02/16 10:45:52;;;;;;;5.87;3.17;;;;;;;;;;774710;180;919348;-64
2024/02/16 10:48:18;;;;;;;5.17;3.60;;;;;;;;;;771051;180;917647;-63
2024/02/16 10:50:44;;;;;;;5.83;3.60;;;;;;;;;;771025;180;934012;-62
2024/02/16 10:53:11;;;;;;;4.93;2.97;;;;;;;;;;773471;180;968157;-65
2024/02/16 10:55:37;;;;;;;5.37;3.80;;;;;;;;;;772365;180;919131;-62
2024/02/16 10:58:03;;;;;;;5.17;3.30;;;;;;;;;;772380;180;921848;-62
2024/02/16 11:00:29;;;;;;;9.33;3.63;;;;;;;;;;768391;180;919623;-62
2024/02/16 11:02:56;;;;;;;10.53;3.87;;;;;;;;;;759716;182;914851;-65
2024/02/16 11:05:28;;;;;;;5.50;3.33;;;;;;;;;;748150;184;942796;-67
2024/02/16 11:08:01;;;;;;;5.50;3.23;;;;;;;;;;769131;180;940319;-62
2024/02/16 11:10:27;;;;;;;4.97;3.47;;;;;;;;;;770133;180;885955;-64
2024/02/16 11:12:55;;;;;;;5.23;3.17;;;;;;;;;;775089;180;1025933;-66
2024/02/16 11:15:19;;;;;;;9.27;4.43;;;;;;;;;;768986;180;917027;-64
2024/02/16 11:17:44;;;;;;;11.13;3.87;;;;;;;;;;768580;180;910935;-62
2024/02/16 11:20:10;;;;;;;6.37;4.03;;;;;;;;;;776766;180;814568;-63
2024/02/16 11:22:36;;;;;;;5.87;3.70;;;;;;;;;;768987;180;918850;-63
2024/02/16 11:25:03;;;;;;;6.47;3.60;;;;;;;;;;771504;180;919826;-63
2024/02/16 11:27:28;;;;;;;5.33;3.90;;;;;;;;;;773202;180;861167;-67
2024/02/16 11:29:55;;;;;;;6.47;3.80;;;;;;;;;;770218;180;919429;-63
2024/02/16 11:32:20;;;;;;;6.90;3.90;;;;;;;;;;769491;180;920991;-64
2024/02/16 11:34:45;;;;;;;5.83;3.10;;;;;;;;;;771422;180;921169;-67
2024/02/16 11:37:11;;;;;;;9.30;4.07;;;;;;;;;;774576;180;889334;-63
2024/02/16 11:39:39;;;;;;;5.30;3.40;;;;;;;;;;767298;180;918734;-66
2024/02/16 11:42:05;;;;;;;7.80;4.30;;;;;;;;;;772419;180;635420;-63
2024/02/16 11:44:32;;;;;;;6.37;3.73;;;;;;;;;;777310;180;820026;-63
2024/02/16 11:46:57;;;;;;;6.20;3.83;;;;;;;;;;772321;180;917579;-67
2024/02/16 11:49:23;;;;;;;6.53;4.53;;;;;;;;;;771248;180;919893;-63
2024/02/16 11:51:50;;;;;;;8.25;4.03;;;;;;;;;;773919;181;945082;-67
2024/02/16 11:54:15;;;;;;;6.50;4.27;;;;;;;;;;754432;182;871977;-68
2024/02/16 11:56:45;;;;;;;8.47;4.77;;;;;;;;;;768830;180;957559;-68
2024/02/16 11:59:12;;;;;;;8.83;3.93;;;;;;;;;;770272;180;918930;-68
2024/02/16 12:01:37;;;;;;;9.20;5.50;;;;;;;;;;773946;180;857054;-65
2024/02/16 12:04:04;;;;;;;6.80;4.20;;;;;;;;;;769915;180;915684;-64
2024/02/16 12:06:30;;;;;;;6.00;3.90;;;;;;;;;;767020;181;964656;-68
2024/02/16 12:08:55;;;;;;;7.60;3.90;;;;;;;;;;773964;181;920266;-67
2024/02/16 12:11:21;;;;;;;6.00;4.00;;;;;;;;;;769970;180;906279;-64
2024/02/16 12:13:47;;;;;;;5.27;3.50;;;;;;;;;;772382;180;690780;-63
2024/02/16 12:16:13;;;;;;;6.60;3.50;;;;;;;;;;771901;180;813095;-67
2024/02/16 12:18:39;;;;;;;5.07;3.20;;;;;;;;;;774218;180;915704;-63
2024/02/16 12:21:05;;;;;;;6.43;3.87;;;;;;;;;;770076;180;914681;-67
2024/02/16 12:23:31;;;;;;;6.37;3.43;;;;;;;;;;769044;180;949718;-69
2024/02/16 12:25:57;;;;;;;6.27;3.00;;;;;;;;;;774985;180;884256;-64
2024/02/16 12:28:25;;;;;;;4.87;3.10;;;;;;;;;;768647;180;879763;-67
2024/02/16 12:30:51;;;;;;;4.23;2.30;;;;;;;;;;767503;180;912525;-68
2024/02/16 12:33:17;;;;;;;7.93;3.45;;;;;;;;;;771782;180;918981;-66
2024/02/16 12:35:43;;;;;;;6.10;3.53;;;;;;;;;;767458;180;918469;-63
2024/02/16 12:38:09;;;;;;;6.13;2.87;;;;;;;;;;768804;180;1019808;-62
2024/02/16 12:40:35;;;;;;;5.87;3.47;;;;;;;;;;767487;180;808243;-67
2024/02/16 12:43:00;;;;;;;4.40;2.90;;;;;;;;;;774444;180;918537;-67
2024/02/16 12:45:26;;;;;;;4.50;3.00;;;;;;;;;;770175;180;921257;-63
2024/02/16 12:47:53;;;;;;;5.43;3.10;;;;;;;;;;765442;180;921118;-64
2024/02/16 12:50:18;;;;;;;6.97;3.70;;;;;;;;;;774745;180;920527;-63
2024/02/16 12:52:44;;;;;;;6.57;3.70;;;;;;;;;;769692;180;887394;-62
2024/02/16 12:55:10;;;;;;;5.03;3.30;;;;;;;;;;771178;180;924120;-63
2024/02/16 12:57:37;;;;;;;5.07;2.70;;;;;;;;;;773056;179;915173;-67
2024/02/16 13:00:03;;;;;;;8.30;3.37;;;;;;;;;;767951;180;920638;-68
2024/02/16 13:02:29;;;;;;;4.70;3.00;;;;;;;;;;770036;180;918658;-68
2024/02/16 13:04:55;;;;;;;6.93;3.63;;;;;;;;;;771162;180;816894;-68
2024/02/16 13:07:20;;;;;;;5.30;2.93;;;;;;;;;;777034;180;795195;-63
2024/02/16 13:09:46;;;;;;;10.00;3.10;;;;;;;;;;772564;180;808947;-63
2024/02/16 13:12:12;;;;;;;5.12;2.80;;;;;;;;;;772843;181;806130;-68
2024/02/16 13:14:38;;;;;;;4.93;3.03;;;;;;;;;;775331;180;913025;-67
2024/02/16 13:17:04;;;;;;;7.63;3.43;;;;;;;;;;771748;180;911442;-67
2024/02/16 13:19:30;;;;;;;5.77;3.60;;;;;;;;;;769585;180;1015530;-63
2024/02/16 13:21:55;;;;;;;7.20;3.60;;;;;;;;;;776795;180;712452;-68
2024/02/16 13:24:21;;;;;;;5.57;3.07;;;;;;;;;;772508;180;906384;-61
2024/02/16 13:26:47;;;;;;;4.90;3.13;;;;;;;;;;769842;180;891003;-67
2024/02/16 13:29:13;;;;;;;6.00;3.70;;;;;;;;;;767619;180;1024647;-62
2024/02/16 13:31:40;;;;;;;8.77;4.37;;;;;;;;;;777161;180;809988;-62
2024/02/16 13:34:05;;;;;;;6.73;3.63;;;;;;;;;;770912;180;936402;-63
2024/02/16 13:36:30;;;;;;;4.50;3.07;;;;;;;;;;769589;180;907923;-67
2024/02/16 13:38:56;;;;;;;5.13;3.10;;;;;;;;;;773585;181;916602;-67
2024/02/16 13:41:22;;;;;;;6.40;3.57;;;;;;;;;;769709;180;869306;-67
2024/02/16 13:43:48;;;;;;;7.03;3.07;;;;;;;;;;773042;180;618368;-68
2024/02/16 13:46:14;;;;;;;6.50;3.23;;;;;;;;;;773065;180;911734;-64
2024/02/16 13:48:41;;;;;;;7.53;3.80;;;;;;;;;;773410;180;627713;-68
2024/02/16 13:51:06;;;;;;;5.63;3.50;;;;;;;;;;772694;180;918257;-69
2024/02/16 13:53:31;;;;;;;7.37;3.57;;;;;;;;;;773603;180;633764;-68
2024/02/16 13:56:00;;;;;;;5.53;3.53;;;;;;;;;;770513;180;639268;-69
2024/02/16 13:58:23;;;;;;;7.20;4.67;;;;;;;;;;773161;180;627999;-70
2024/02/16 14:00:49;;;;;;;6.20;3.43;;;;;;;;;;772792;180;626219;-65
2024/02/16 14:03:15;;;;;;;9.00;3.50;;;;;;;;;;777537;180;625325;-64
2024/02/16 14:05:41;;;;;;;6.53;3.77;;;;;;;;;;771970;180;920400;-64
2024/02/16 14:08:09;;;;;;;6.67;3.60;;;;;;;;;;771025;180;855706;-68
2024/02/16 14:10:32;;;;;;;4.77;3.40;;;;;;;;;;777139;179;910657;-69